Expo Clipper — WDD8769 — position and weather

sailwx.info

Track history (hours):
 
Tides and Currents Weather Stations Pressure Air Temp Water Temp Dewpoint Dewpoint Depression Visibility Wind Speed Wind Dir Waves Ship Positions

Expo Clipper

Owner: Expoships LLLP, Bonita Springs, FL. More information available from US FCC via Universal Licensing System and Coast Guard Vessel Documentation Center.

Last reported at 2018-Apr-18 22:26 UTC. Time now 2018-Apr-23 05:30 UTC.
Position N 33°44' W 118°16'.

Length 31 m.

Type: Passenger vessel. MMSI: 367302530.

Date/timePositionNaut miles runAvg speedWind from/ knotsBaromVisibWave heightAir tempDewpointWater temp
2018-Apr-18 22:26N 33°44' W 118°16'2 3.9
2018-Apr-18 22:00N 33°43' W 118°15'1 1.5
2018-Apr-18 21:30N 33°43' W 118°16'  
2018-Apr-16 01:57N 33°44' W 118°16'1 1.7
2018-Apr-16 01:30N 33°44' W 118°16'3 6.7
2018-Apr-16 01:01N 33°40' W 118°15'4 6.9
2018-Apr-16 00:30N 33°37' W 118°16'5 6.6
2018-Apr-15 23:46N 33°32' W 118°17'6 6.8
2018-Apr-15 22:56N 33°27' W 118°19'3 6.9
2018-Apr-15 22:29N 33°24' W 118°19'2 5.2
2018-Apr-15 22:00N 33°21' W 118°20'0 0.7
2018-Apr-15 21:28N 33°21' W 118°19'1 1.1
2018-Apr-15 20:59N 33°21' W 118°20'0 0.0
2018-Apr-15 20:22N 33°21' W 118°20'0 0.0
2018-Apr-15 17:57N 33°21' W 118°20'0 0.0
2018-Apr-15 17:30N 33°21' W 118°20'0 0.0
2018-Apr-15 17:00N 33°21' W 118°20'0 0.0
2018-Apr-15 16:09N 33°21' W 118°20'0 0.1
2018-Apr-15 15:59N 33°21' W 118°20'0 0.0
2018-Apr-15 15:29N 33°21' W 118°20'0 0.0
2018-Apr-15 15:00N 33°21' W 118°20'0 0.0
2018-Apr-15 14:30N 33°21' W 118°20'0 0.0
2018-Apr-15 12:47N 33°21' W 118°20'0 0.2
2018-Apr-15 12:30N 33°21' W 118°20'0 0.0
2018-Apr-15 12:00N 33°21' W 118°20'0 0.1
2018-Apr-15 11:28N 33°21' W 118°20'0 0.0
2018-Apr-15 07:58N 33°21' W 118°20'0 0.0
2018-Apr-15 07:30N 33°21' W 118°20'0 0.0
2018-Apr-15 03:12N 33°21' W 118°20'0 0.0
2018-Apr-15 02:58N 33°21' W 118°20'0 0.0
2018-Apr-15 02:30N 33°21' W 118°20'0 0.0
2018-Apr-15 01:52N 33°21' W 118°20'19 2.4
2018-Apr-14 18:04N 33°40' W 118°16'0 6.6
2018-Apr-14 18:00N 33°40' W 118°16'3 6.0
2018-Apr-14 17:30N 33°43' W 118°16'1 1.6
2018-Apr-14 17:01N 33°44' W 118°16'0 0.0
2018-Apr-14 16:30N 33°44' W 118°16'0 0.0
2018-Apr-14 16:00N 33°44' W 118°16'  
2018-Apr-12 01:01N 33°44' W 118°16'0 0.0
2018-Apr-12 01:01N 33°44' W 118°16'0 0.0
2018-Apr-12 00:31N 33°44' W 118°16'0 0.3
2018-Apr-12 00:00N 33°44' W 118°16'2 3.7
2018-Apr-11 23:30N 33°43' W 118°15'4 7.0
2018-Apr-11 22:59N 33°40' W 118°18'4 7.3
2018-Apr-11 22:30N 33°37' W 118°21'7 7.1
2018-Apr-11 21:27N 33°32' W 118°27'5 5.7
2018-Apr-11 20:30N 33°28' W 118°32'0 0.1
2018-Apr-11 19:20N 33°28' W 118°32'1 2.6
2018-Apr-11 18:58N 33°29' W 118°31'8 6.4
2018-Apr-11 17:41N 33°35' W 118°24'1 6.9
2018-Apr-11 17:30N 33°36' W 118°23'3 6.7
2018-Apr-11 17:00N 33°38' W 118°20'3 6.8
2018-Apr-11 16:30N 33°40' W 118°17'3 5.9
2018-Apr-11 16:01N 33°43' W 118°16'1 0.1
2018-Apr-11 02:32N 33°44' W 118°16'0 0.0
2018-Apr-11 02:31N 33°44' W 118°16'0 0.3
2018-Apr-11 02:00N 33°44' W 118°16'0 0.3
2018-Apr-11 01:30N 33°44' W 118°16'0 0.9
2018-Apr-11 01:01N 33°44' W 118°16'0 0.0
2018-Apr-11 00:31N 33°44' W 118°16'0 1.0
2018-Apr-11 00:01N 33°44' W 118°16'  
Track history (hours):
 
Tides and Currents Weather Stations Pressure Air Temp Water Temp Dewpoint Dewpoint Depression Visibility Wind Speed Wind Dir Waves Ship Positions

Expo Clipper

Owner: Expoships LLLP, Bonita Springs, FL. More information available from US FCC via Universal Licensing System and Coast Guard Vessel Documentation Center.

Last reported at 2018-Apr-18 22:26 UTC. Time now 2018-Apr-23 05:30 UTC.
Position N 33°44' W 118°16'.

Length 31 m.

Type: Passenger vessel. MMSI: 367302530.

Date/timePositionNaut miles runAvg speedWind from/ knotsBaromVisibWave heightAir tempDewpointWater temp
2018-Apr-18 22:26N 33°44' W 118°16'2 3.9
2018-Apr-18 22:00N 33°43' W 118°15'1 1.5
2018-Apr-18 21:30N 33°43' W 118°16'  
2018-Apr-16 01:57N 33°44' W 118°16'1 1.7
2018-Apr-16 01:30N 33°44' W 118°16'3 6.7
2018-Apr-16 01:01N 33°40' W 118°15'4 6.9
2018-Apr-16 00:30N 33°37' W 118°16'5 6.6
2018-Apr-15 23:46N 33°32' W 118°17'6 6.8
2018-Apr-15 22:56N 33°27' W 118°19'3 6.9
2018-Apr-15 22:29N 33°24' W 118°19'2 5.2
2018-Apr-15 22:00N 33°21' W 118°20'0 0.7
2018-Apr-15 21:28N 33°21' W 118°19'1 1.1
2018-Apr-15 20:59N 33°21' W 118°20'0 0.0
2018-Apr-15 20:22N 33°21' W 118°20'0 0.0
2018-Apr-15 17:57N 33°21' W 118°20'0 0.0
2018-Apr-15 17:30N 33°21' W 118°20'0 0.0
2018-Apr-15 17:00N 33°21' W 118°20'0 0.0
2018-Apr-15 16:09N 33°21' W 118°20'0 0.1
2018-Apr-15 15:59N 33°21' W 118°20'0 0.0
2018-Apr-15 15:29N 33°21' W 118°20'0 0.0
2018-Apr-15 15:00N 33°21' W 118°20'0 0.0
2018-Apr-15 14:30N 33°21' W 118°20'0 0.0
2018-Apr-15 12:47N 33°21' W 118°20'0 0.2
2018-Apr-15 12:30N 33°21' W 118°20'0 0.0
2018-Apr-15 12:00N 33°21' W 118°20'0 0.1
2018-Apr-15 11:28N 33°21' W 118°20'0 0.0
2018-Apr-15 07:58N 33°21' W 118°20'0 0.0
2018-Apr-15 07:30N 33°21' W 118°20'0 0.0
2018-Apr-15 03:12N 33°21' W 118°20'0 0.0
2018-Apr-15 02:58N 33°21' W 118°20'0 0.0
2018-Apr-15 02:30N 33°21' W 118°20'0 0.0
2018-Apr-15 01:52N 33°21' W 118°20'19 2.4
2018-Apr-14 18:04N 33°40' W 118°16'0 6.6
2018-Apr-14 18:00N 33°40' W 118°16'3 6.0
2018-Apr-14 17:30N 33°43' W 118°16'1 1.6
2018-Apr-14 17:01N 33°44' W 118°16'0 0.0
2018-Apr-14 16:30N 33°44' W 118°16'0 0.0
2018-Apr-14 16:00N 33°44' W 118°16'  
2018-Apr-12 01:01N 33°44' W 118°16'0 0.0
2018-Apr-12 01:01N 33°44' W 118°16'0 0.0
2018-Apr-12 00:31N 33°44' W 118°16'0 0.3
2018-Apr-12 00:00N 33°44' W 118°16'2 3.7
2018-Apr-11 23:30N 33°43' W 118°15'4 7.0
2018-Apr-11 22:59N 33°40' W 118°18'4 7.3
2018-Apr-11 22:30N 33°37' W 118°21'7 7.1
2018-Apr-11 21:27N 33°32' W 118°27'5 5.7
2018-Apr-11 20:30N 33°28' W 118°32'0 0.1
2018-Apr-11 19:20N 33°28' W 118°32'1 2.6
2018-Apr-11 18:58N 33°29' W 118°31'8 6.4
2018-Apr-11 17:41N 33°35' W 118°24'1 6.9
2018-Apr-11 17:30N 33°36' W 118°23'3 6.7
2018-Apr-11 17:00N 33°38' W 118°20'3 6.8
2018-Apr-11 16:30N 33°40' W 118°17'3 5.9
2018-Apr-11 16:01N 33°43' W 118°16'1 0.1
2018-Apr-11 02:32N 33°44' W 118°16'0 0.0
2018-Apr-11 02:31N 33°44' W 118°16'0 0.3
2018-Apr-11 02:00N 33°44' W 118°16'0 0.3
2018-Apr-11 01:30N 33°44' W 118°16'0 0.9
2018-Apr-11 01:01N 33°44' W 118°16'0 0.0
2018-Apr-11 00:31N 33°44' W 118°16'0 1.0
2018-Apr-11 00:01N 33°44' W 118°16'  

Dump ship's entire track history